TimeCEST,TemperatureF,Dew PointF,Humidity,Sea Level PressureIn,VisibilityMPH,Wind Direction,Wind SpeedMPH,Gust SpeedMPH,PrecipitationIn,Events,Conditions,WindDirDegrees,DateUTC
12:15 AM,75.2,64.4,69,29.98,-9999.0,NE,4.6,-,N/A,,Clear,40,2013-06-15 22:15:00
12:45 AM,75.2,64.4,69,29.98,-9999.0,East,4.6,-,N/A,,Clear,80,2013-06-15 22:45:00
1:15 AM,75.2,66.2,73,29.98,-9999.0,ENE,2.3,-,N/A,,Clear,70,2013-06-15 23:15:00
1:45 AM,75.2,66.2,73,29.98,-9999.0,ENE,2.3,-,N/A,,Clear,70,2013-06-15 23:45:00
2:00 AM,75,66,65,29.99,6,ENE,2.3,,,,,70,2013-06-16 00:00:00
2:15 AM,75.2,66.2,73,29.98,-9999.0,East,1.2,-,N/A,,Clear,80,2013-06-16 00:15:00
2:45 AM,73.4,68.0,83,29.98,-9999.0,SSE,3.5,-,N/A,,Clear,160,2013-06-16 00:45:00
3:15 AM,73.4,68.0,83,29.98,-9999.0,SSE,3.5,-,N/A,,Clear,160,2013-06-16 01:15:00
3:45 AM,73.4,68.0,83,29.98,-9999.0,SSE,3.5,-,N/A,,Clear,160,2013-06-16 01:45:00
4:15 AM,71.6,66.2,83,30.01,4.3,NNW,4.6,-,N/A,,Unknown,340,2013-06-16 02:15:00
4:45 AM,71.6,66.2,83,30.01,4.3,North,4.6,-,N/A,,Unknown,350,2013-06-16 02:45:00
5:00 AM,72,67,78,30.00,4,North,4.6,,,,Mist,350,2013-06-16 03:00:00
5:15 AM,71.6,66.2,83,30.01,4.3,North,4.6,-,N/A,,Unknown,350,2013-06-16 03:15:00
5:45 AM,71.6,66.2,83,30.01,2.5,North,3.5,-,N/A,,Mist,360,2013-06-16 03:45:00
6:15 AM,71.6,66.2,83,30.01,2.5,North,4.6,-,N/A,,Partly Cloudy,350,2013-06-16 04:15:00
6:45 AM,71.6,66.2,83,30.01,3.1,North,5.8,-,N/A,,Partly Cloudy,360,2013-06-16 04:45:00
7:15 AM,73.4,66.2,78,30.01,3.1,North,4.6,-,N/A,,Partly Cloudy,350,2013-06-16 05:15:00
7:45 AM,75.2,68.0,78,30.04,3.7,North,3.5,-,N/A,,Unknown,10,2013-06-16 05:45:00
8:00 AM,75,67,71,30.03,4,North,3.5,,,,Mist,10,2013-06-16 06:00:00
8:15 AM,77.0,66.2,69,30.04,3.7,East,3.5,-,N/A,,Unknown,90,2013-06-16 06:15:00
8:45 AM,78.8,68.0,69,30.04,3.7,ESE,3.5,-,N/A,,Unknown,120,2013-06-16 06:45:00
9:15 AM,78.8,68.0,69,30.04,3.7,SE,3.5,-,N/A,,Unknown,140,2013-06-16 07:15:00
9:45 AM,80.6,66.2,61,30.04,4.3,East,2.3,-,N/A,,Unknown,80,2013-06-16 07:45:00
10:15 AM,82.4,66.2,58,30.04,4.3,East,4.6,-,N/A,,Unknown,90,2013-06-16 08:15:00
10:45 AM,82.4,66.2,58,30.04,5.0,East,3.5,-,N/A,,Unknown,100,2013-06-16 08:45:00
11:00 AM,83,66,47,30.05,5,East,3.5,,,,Mist,100,2013-06-16 09:00:00
11:15 AM,84.2,68.0,58,30.04,-9999.0,East,6.9,-,N/A,,Clear,90,2013-06-16 09:15:00
11:45 AM,84.2,68.0,58,30.04,6.2,ESE,5.8,-,N/A,,Partly Cloudy,110,2013-06-16 09:45:00
12:15 PM,86.0,68.0,55,30.04,6.2,East,4.6,-,N/A,,Partly Cloudy,90,2013-06-16 10:15:00
12:45 PM,86.0,68.0,55,30.04,6.2,ESE,4.6,-,N/A,,Partly Cloudy,120,2013-06-16 10:45:00
1:15 PM,86.0,68.0,55,30.04,6.2,SSE,4.6,-,N/A,,Partly Cloudy,150,2013-06-16 11:15:00
1:45 PM,86.0,68.0,55,30.04,6.2,SSW,5.8,-,N/A,,Partly Cloudy,200,2013-06-16 11:45:00
2:00 PM,86,68,45,30.04,6,SSW,5.8,,,,Scattered Clouds,200,2013-06-16 12:00:00
2:15 PM,87.8,68.0,52,30.04,6.2,ESE,4.6,-,N/A,,Partly Cloudy,120,2013-06-16 12:15:00
2:45 PM,87.8,68.0,52,30.01,6.2,South,3.5,-,N/A,,Partly Cloudy,190,2013-06-16 12:45:00
3:15 PM,89.6,68.0,49,30.01,6.2,SSE,6.9,-,N/A,,Partly Cloudy,160,2013-06-16 13:15:00
3:45 PM,89.6,66.2,46,30.01,6.2,South,5.8,-,N/A,,Partly Cloudy,190,2013-06-16 13:45:00
4:15 PM,89.6,66.2,46,30.01,6.2,South,4.6,-,N/A,,Partly Cloudy,170,2013-06-16 14:15:00
4:45 PM,89.6,66.2,46,30.01,6.2,SSW,4.6,-,N/A,,Partly Cloudy,200,2013-06-16 14:45:00
5:00 PM,90,66,36,30.00,6,SSW,4.6,,,,Scattered Clouds,200,2013-06-16 15:00:00
5:15 PM,89.6,66.2,46,30.01,6.2,SW,4.6,-,N/A,,Partly Cloudy,220,2013-06-16 15:15:00
5:45 PM,89.6,64.4,43,30.01,6.2,SSE,2.3,-,N/A,,Partly Cloudy,160,2013-06-16 15:45:00
6:15 PM,89.6,66.2,46,29.98,6.2,South,5.8,-,N/A,,Partly Cloudy,180,2013-06-16 16:15:00
6:45 PM,89.6,66.2,46,29.98,-9999.0,South,4.6,-,N/A,,Clear,180,2013-06-16 16:45:00
7:15 PM,89.6,66.2,46,29.98,-9999.0,South,4.6,-,N/A,,Clear,180,2013-06-16 17:15:00
7:45 PM,89.6,66.2,46,29.98,-9999.0,SW,4.6,-,N/A,,Clear,220,2013-06-16 17:45:00
8:00 PM,89,66,36,29.98,12,SW,4.6,,,,,220,2013-06-16 18:00:00
8:15 PM,89.6,66.2,46,29.98,-9999.0,SW,3.5,-,N/A,,Clear,230,2013-06-16 18:15:00
8:45 PM,87.8,66.2,49,29.98,-9999.0,SW,3.5,-,N/A,,Clear,230,2013-06-16 18:45:00
9:15 PM,86.0,64.4,48,29.98,-9999.0,WSW,1.2,-,N/A,,Clear,240,2013-06-16 19:15:00
9:45 PM,84.2,66.2,55,29.98,-9999.0,West,3.5,-,N/A,,Clear,270,2013-06-16 19:45:00
10:15 PM,82.4,64.4,54,30.01,-9999.0,WNW,4.6,-,N/A,,Clear,300,2013-06-16 20:15:00
10:45 PM,78.8,64.4,61,30.01,-9999.0,NNW,5.8,-,N/A,,Clear,340,2013-06-16 20:45:00
11:00 PM,80,64,50,30.01,6,NNW,5.8,,,,,340,2013-06-16 21:00:00
11:15 PM,78.8,66.2,65,30.01,-9999.0,NNW,5.8,-,N/A,,Clear,330,2013-06-16 21:15:00
11:45 PM,78.8,68.0,69,30.01,-9999.0,North,4.6,-,N/A,,Clear,10,2013-06-16 21:45:00